Time;durP1;ratioP1;P1;durP2;ratioP2;P2;SDS_P1;SDS_P2;PMS_P1;PMS_P2;Temp;Humidity;BMP_temperature;BMP_pressure;BME280_temperature;BME280_humidity;BME280_pressure;Samples;Min_cycle;Max_cycle;Signal;HPM_P1;HPM_P2
2020/12/06 00:01:18;;;;;;;24.08;18.15;;;6.20;99.90;;;;;;5036275;28;20220;-46
2020/12/06 00:03:45;;;;;;;25.63;18.55;;;6.40;99.90;;;;;;5035684;28;20212;-45
2020/12/06 00:06:11;;;;;;;31.02;20.33;;;6.20;99.90;;;;;;5035280;28;20267;-44
2020/12/06 00:08:38;;;;;;;24.90;18.60;;;6.20;99.90;;;;;;5032827;28;20201;-45
2020/12/06 00:11:06;;;;;;;28.88;18.90;;;6.20;99.90;;;;;;5032899;28;20623;-44
2020/12/06 00:13:32;;;;;;;26.27;19.13;;;6.20;99.90;;;;;;5033013;28;20189;-45
2020/12/06 00:16:00;;;;;;;26.52;21.33;;;6.10;99.90;;;;;;5035259;28;20279;-47
2020/12/06 00:18:26;;;;;;;25.88;21.42;;;6.20;99.90;;;;;;5033177;28;20196;-46
2020/12/06 00:20:53;;;;;;;25.02;18.40;;;5.90;99.90;;;;;;5032584;28;20220;-46
2020/12/06 00:23:20;;;;;;;30.60;20.40;;;6.10;99.90;;;;;;5032225;28;20263;-45
2020/12/06 00:25:49;;;;;;;24.90;18.80;;;5.70;99.90;;;;;;5032619;28;20217;-46
2020/12/06 00:28:15;;;;;;;26.47;19.10;;;5.80;99.90;;;;;;5032520;28;20223;-46
2020/12/06 00:30:42;;;;;;;29.05;20.13;;;5.90;99.90;;;;;;5032645;28;20499;-46
2020/12/06 00:33:09;;;;;;;25.95;20.35;;;5.90;99.90;;;;;;5032345;28;20266;-46
2020/12/06 00:35:36;;;;;;;30.52;21.48;;;5.60;99.90;;;;;;5032595;28;20654;-45
2020/12/06 00:38:03;;;;;;;30.67;21.27;;;5.90;99.90;;;;;;5032472;28;20362;-46
2020/12/06 00:40:29;;;;;;;27.02;20.52;;;5.80;99.90;;;;;;5032552;28;20197;-45
2020/12/06 00:42:56;;;;;;;28.08;20.83;;;5.80;99.90;;;;;;5031931;28;20630;-46
2020/12/06 00:45:22;;;;;;;30.48;21.80;;;5.90;99.90;;;;;;5033843;28;20223;-47
2020/12/06 00:47:49;;;;;;;29.23;20.70;;;5.60;99.90;;;;;;5035435;28;20200;-46
2020/12/06 00:50:16;;;;;;;32.63;23.40;;;5.80;99.90;;;;;;5017848;28;20205;-46
2020/12/06 00:52:43;;;;;;;32.80;22.63;;;5.70;99.90;;;;;;5036193;28;20205;-46
2020/12/06 00:55:09;;;;;;;32.33;23.13;;;5.90;99.90;;;;;;5035362;28;20603;-45
2020/12/06 00:57:36;;;;;;;29.33;22.48;;;5.90;99.90;;;;;;5014180;28;20196;-47
2020/12/06 01:00:05;;;;;;;39.05;25.58;;;5.80;99.90;;;;;;5031976;28;20562;-46
2020/12/06 01:02:32;;;;;;;34.38;23.85;;;5.80;99.90;;;;;;5031435;28;20255;-46
2020/12/06 01:04:58;;;;;;;37.55;25.45;;;5.70;99.90;;;;;;5033592;28;20200;-47
2020/12/06 01:07:26;;;;;;;37.58;26.98;;;5.90;99.90;;;;;;5033296;28;20192;-47
2020/12/06 01:09:52;;;;;;;32.67;26.38;;;5.70;99.90;;;;;;5031930;28;20251;-46
2020/12/06 01:12:19;;;;;;;41.03;29.15;;;5.90;99.90;;;;;;5031822;28;20240;-46
2020/12/06 01:14:46;;;;;;;41.95;27.58;;;5.80;99.90;;;;;;5031703;28;20279;-46
2020/12/06 01:17:12;;;;;;;39.47;27.45;;;5.60;99.90;;;;;;5031949;28;20197;-45
2020/12/06 01:19:39;;;;;;;42.75;28.42;;;5.20;99.90;;;;;;5032976;28;20554;-46
2020/12/06 01:22:05;;;;;;;46.38;28.88;;;5.80;99.90;;;;;;5032995;28;20228;-46
2020/12/06 01:24:33;;;;;;;45.88;30.17;;;5.90;99.90;;;;;;5033893;28;20204;-46
2020/12/06 01:26:59;;;;;;;41.55;29.48;;;6.00;99.90;;;;;;5036384;28;20275;-47
2020/12/06 01:29:26;;;;;;;38.67;27.83;;;5.80;99.90;;;;;;5035670;28;20518;-46
2020/12/06 01:31:52;;;;;;;42.00;26.67;;;5.90;99.90;;;;;;5032950;28;20213;-46
2020/12/06 01:34:19;;;;;;;43.42;29.33;;;6.20;99.90;;;;;;5032420;28;20216;-46
2020/12/06 01:36:45;;;;;;;40.80;27.90;;;6.00;99.90;;;;;;5032053;28;20246;-47
2020/12/06 01:39:12;;;;;;;38.55;27.73;;;6.00;99.90;;;;;;5031424;28;20306;-47
2020/12/06 01:41:39;;;;;;;41.30;29.00;;;6.10;99.90;;;;;;5031058;28;20286;-46
2020/12/06 01:44:06;;;;;;;39.92;27.75;;;6.00;99.90;;;;;;5013424;28;20615;-47
2020/12/06 01:46:35;;;;;;;39.38;28.90;;;6.00;99.90;;;;;;5032160;28;20658;-46
2020/12/06 01:49:01;;;;;;;39.88;27.40;;;6.20;99.90;;;;;;5031821;28;20539;-47
2020/12/06 01:51:28;;;;;;;41.03;27.23;;;6.50;99.90;;;;;;5013797;28;20244;-47
2020/12/06 01:53:54;;;;;;;37.03;27.52;;;6.20;99.90;;;;;;5031184;28;20665;-47
2020/12/06 01:56:21;;;;;;;38.22;27.17;;;6.60;99.90;;;;;;5034006;28;20220;-47
2020/12/06 01:58:48;;;;;;;39.65;28.45;;;6.50;99.90;;;;;;5035161;28;20366;-46
2020/12/06 02:01:15;;;;;;;44.35;26.55;;;6.50;99.90;;;;;;5035111;28;20201;-47
2020/12/06 02:03:41;;;;;;;37.63;26.58;;;6.50;99.90;;;;;;5035237;28;20243;-45
2020/12/06 02:06:08;;;;;;;44.55;28.35;;;6.60;99.90;;;;;;5035536;28;20220;-47
2020/12/06 02:08:35;;;;;;;39.60;28.58;;;6.70;99.90;;;;;;5035370;28;20608;-46
2020/12/06 02:11:01;;;;;;;36.63;25.80;;;6.40;99.90;;;;;;5035672;28;20252;-46
2020/12/06 02:13:28;;;;;;;34.50;26.60;;;6.80;99.90;;;;;;5034774;28;20208;-46
2020/12/06 02:15:55;;;;;;;37.53;27.20;;;6.70;99.90;;;;;;5035186;28;20439;-46
2020/12/06 02:18:22;;;;;;;39.37;26.90;;;6.40;99.90;;;;;;5035127;28;20436;-45
2020/12/06 02:20:50;;;;;;;38.70;26.83;;;6.50;99.90;;;;;;5034802;28;20470;-46
2020/12/06 02:23:16;;;;;;;37.03;27.07;;;6.70;99.90;;;;;;5034214;28;20486;-47
2020/12/06 02:25:43;;;;;;;37.58;25.88;;;6.80;99.90;;;;;;5034836;28;20439;-46
2020/12/06 02:28:10;;;;;;;40.20;28.38;;;6.60;99.90;;;;;;5017310;28;20229;-46
2020/12/06 02:30:36;;;;;;;40.73;27.13;;;6.00;99.90;;;;;;5037340;28;20205;-45
2020/12/06 02:33:04;;;;;;;37.03;26.35;;;6.70;99.90;;;;;;5039114;28;20486;-46
2020/12/06 02:35:31;;;;;;;37.63;27.13;;;6.90;99.90;;;;;;5039704;28;20255;-46
2020/12/06 02:37:59;;;;;;;30.35;23.92;;;6.40;99.90;;;;;;5036289;28;20628;-46
2020/12/06 02:40:25;;;;;;;39.65;26.10;;;6.40;99.90;;;;;;5034709;28;20222;-46
2020/12/06 02:42:52;;;;;;;37.63;24.58;;;6.60;99.90;;;;;;5034896;28;20275;-46
2020/12/06 02:45:18;;;;;;;36.25;26.38;;;6.60;99.90;;;;;;5036465;28;20681;-45
2020/12/06 02:47:45;;;;;;;38.05;27.42;;;6.40;99.90;;;;;;5035165;28;20216;-47
2020/12/06 02:50:11;;;;;;;39.50;25.57;;;6.70;99.90;;;;;;5034549;28;20188;-47
2020/12/06 02:52:38;;;;;;;35.63;24.30;;;6.40;99.90;;;;;;5034070;28;20443;-46
2020/12/06 02:55:05;;;;;;;37.40;24.80;;;6.60;99.90;;;;;;5034267;28;20932;-46
2020/12/06 02:57:31;;;;;;;34.63;24.98;;;6.50;99.90;;;;;;5034416;28;20450;-46
2020/12/06 02:59:58;;;;;;;38.53;25.17;;;6.10;99.90;;;;;;5034274;28;20228;-46
2020/12/06 03:02:24;;;;;;;38.42;25.17;;;6.10;99.90;;;;;;5056377;22;20236;-48
2020/12/06 03:04:51;;;;;;;37.83;25.77;;;6.40;99.90;;;;;;5034526;28;20585;-48
2020/12/06 03:07:17;;;;;;;36.00;25.05;;;6.90;99.90;;;;;;5033608;28;20463;-48
2020/12/06 03:09:44;;;;;;;34.42;25.27;;;6.40;99.90;;;;;;5034339;28;20189;-48
2020/12/06 03:12:11;;;;;;;35.25;23.85;;;6.60;99.90;;;;;;5034391;28;20216;-48
2020/12/06 03:14:38;;;;;;;36.03;24.52;;;6.40;99.90;;;;;;5016834;28;20747;-47
2020/12/06 03:17:04;;;;;;;36.22;25.15;;;6.50;99.90;;;;;;5034618;28;20200;-48
2020/12/06 03:19:31;;;;;;;36.42;26.08;;;6.50;99.90;;;;;;5034747;28;20483;-48
2020/12/06 03:21:57;;;;;;;34.35;23.60;;;6.60;99.90;;;;;;5034814;28;20266;-48
2020/12/06 03:24:24;;;;;;;34.70;24.38;;;6.60;99.90;;;;;;5034358;28;20271;-49
2020/12/06 03:26:51;;;;;;;36.25;24.05;;;6.50;99.90;;;;;;5034517;28;20189;-48
2020/12/06 03:29:18;;;;;;;30.52;24.48;;;6.50;99.90;;;;;;5034458;28;20243;-48
2020/12/06 03:31:45;;;;;;;32.20;23.00;;;6.40;99.90;;;;;;5016109;28;21029;-48
2020/12/06 03:34:11;;;;;;;33.40;23.55;;;6.50;99.90;;;;;;5033519;28;20209;-48
2020/12/06 03:36:38;;;;;;;30.10;23.40;;;6.50;99.90;;;;;;5015903;28;20262;-48
2020/12/06 03:39:04;;;;;;;30.15;22.60;;;6.00;99.90;;;;;;5034031;28;20189;-48
2020/12/06 03:41:31;;;;;;;30.50;21.95;;;6.80;99.90;;;;;;5033579;28;20197;-48
2020/12/06 03:43:57;;;;;;;34.78;22.80;;;6.60;99.90;;;;;;5033669;28;20616;-48
2020/12/06 03:46:25;;;;;;;34.00;23.92;;;6.90;99.90;;;;;;5033170;28;20208;-48
2020/12/06 03:48:52;;;;;;;29.65;21.80;;;6.10;99.90;;;;;;5032719;28;20215;-48
2020/12/06 03:51:18;;;;;;;30.35;22.08;;;6.80;99.90;;;;;;5033573;28;20227;-48
2020/12/06 03:53:45;;;;;;;30.23;22.37;;;6.70;99.90;;;;;;5033219;28;20692;-48
2020/12/06 03:56:11;;;;;;;31.13;21.38;;;7.00;99.90;;;;;;5033666;28;20493;-49
2020/12/06 03:58:38;;;;;;;26.73;21.05;;;6.70;99.90;;;;;;5015995;28;20201;-49
2020/12/06 04:01:04;;;;;;;28.67;20.77;;;6.70;99.90;;;;;;5033577;28;20200;-49
2020/12/06 04:03:32;;;;;;;30.70;22.58;;;7.00;99.90;;;;;;5033830;28;20270;-50
2020/12/06 04:05:58;;;;;;;30.53;23.23;;;6.80;99.90;;;;;;5033120;28;20248;-48
2020/12/06 04:08:24;;;;;;;31.37;21.37;;;6.90;99.90;;;;;;5033071;28;20446;-48
2020/12/06 04:10:51;;;;;;;32.92;22.98;;;6.80;99.90;;;;;;5033325;28;20427;-48
2020/12/06 04:13:17;;;;;;;29.67;21.93;;;6.80;99.90;;;;;;5032793;28;20308;-48
2020/12/06 04:15:44;;;;;;;34.00;23.25;;;6.80;99.90;;;;;;5032979;28;20432;-49
2020/12/06 04:18:10;;;;;;;32.22;22.05;;;6.90;99.90;;;;;;5032730;28;20256;-48
2020/12/06 04:20:38;;;;;;;32.95;23.13;;;6.80;99.90;;;;;;5033184;28;20535;-48
2020/12/06 04:23:04;;;;;;;34.47;22.80;;;6.80;99.90;;;;;;5032631;28;20646;-48
2020/12/06 04:25:31;;;;;;;33.05;21.65;;;7.00;99.90;;;;;;5014943;28;20246;-48
2020/12/06 04:27:57;;;;;;;31.73;24.45;;;7.00;99.90;;;;;;5032769;28;20666;-48
2020/12/06 04:30:24;;;;;;;28.07;21.87;;;7.10;99.90;;;;;;5015043;28;20208;-48
2020/12/06 04:32:50;;;;;;;29.97;23.37;;;6.70;99.90;;;;;;5032363;28;20451;-49
2020/12/06 04:35:17;;;;;;;30.55;21.70;;;6.70;99.90;;;;;;5032378;28;20959;-49
2020/12/06 04:37:44;;;;;;;29.55;21.80;;;6.80;99.90;;;;;;5032850;28;20323;-49
2020/12/06 04:40:11;;;;;;;31.50;22.40;;;6.60;99.90;;;;;;5032545;28;20678;-49
2020/12/06 04:42:37;;;;;;;31.53;22.83;;;6.70;99.90;;;;;;5032240;28;20579;-49
2020/12/06 04:45:04;;;;;;;29.98;21.58;;;6.90;99.90;;;;;;5032736;28;20916;-50
2020/12/06 04:47:46;;;;;;;31.50;20.30;;;6.90;99.90;;;;;;5032397;28;20193;-49
2020/12/06 04:50:20;;;;;;;34.28;23.08;;;7.00;99.90;;;;;;5032503;28;20208;-49
2020/12/06 04:52:55;;;;;;;30.80;22.52;;;6.70;99.90;;;;;;5032075;28;20236;-50
2020/12/06 04:55:26;;;;;;;30.13;22.30;;;6.80;99.90;;;;;;5032367;28;20188;-49
2020/12/06 04:57:55;;;;;;;33.08;23.17;;;7.00;99.90;;;;;;5032420;28;20216;-49
2020/12/06 05:00:31;;;;;;;29.98;22.20;;;7.10;99.90;;;;;;5032261;28;20236;-49
2020/12/06 05:02:59;;;;;;;29.77;21.83;;;6.80;99.90;;;;;;5031716;28;20228;-49
2020/12/06 05:05:34;;;;;;;29.13;20.37;;;6.80;99.90;;;;;;5032164;28;20435;-49
2020/12/06 05:08:07;;;;;;;30.00;22.00;;;7.00;99.90;;;;;;5032057;28;20430;-49
2020/12/06 05:10:36;;;;;;;31.33;20.95;;;6.80;99.90;;;;;;5032149;28;20461;-48
2020/12/06 05:13:03;;;;;;;31.43;23.23;;;6.90;99.90;;;;;;5031518;28;20287;-48
2020/12/06 05:15:30;;;;;;;30.70;22.17;;;6.80;99.90;;;;;;5031927;28;20439;-49
2020/12/06 05:17:58;;;;;;;32.20;20.93;;;6.80;99.90;;;;;;5031965;28;20474;-49
2020/12/06 05:20:25;;;;;;;32.10;23.37;;;6.80;99.90;;;;;;5015506;28;20494;-48
2020/12/06 05:22:52;;;;;;;31.10;21.50;;;6.90;99.90;;;;;;5031437;28;20475;-49
2020/12/06 05:25:19;;;;;;;30.83;22.10;;;6.80;99.90;;;;;;5031841;28;20201;-48
2020/12/06 05:27:46;;;;;;;29.73;21.67;;;6.70;99.90;;;;;;5031856;28;20439;-49
2020/12/06 05:30:13;;;;;;;30.57;21.63;;;6.70;99.90;;;;;;5031406;28;20846;-48
2020/12/06 05:32:41;;;;;;;33.97;23.17;;;6.80;99.90;;;;;;5031499;28;20509;-48
2020/12/06 05:35:09;;;;;;;28.93;22.07;;;6.80;99.90;;;;;;5031702;28;20435;-48
2020/12/06 05:37:36;;;;;;;32.03;21.33;;;6.80;99.90;;;;;;5031665;28;20530;-48
2020/12/06 05:40:05;;;;;;;28.30;21.90;;;6.50;99.90;;;;;;5031705;28;20520;-49
2020/12/06 05:42:34;;;;;;;29.10;22.37;;;6.80;99.90;;;;;;5013412;28;21003;-49
2020/12/06 05:45:01;;;;;;;30.47;21.73;;;6.90;99.90;;;;;;5031591;28;20435;-49
2020/12/06 05:47:27;;;;;;;30.87;21.13;;;6.80;99.90;;;;;;5031482;28;20491;-49
2020/12/06 05:49:55;;;;;;;29.77;21.08;;;6.80;99.90;;;;;;5031464;28;20408;-48
2020/12/06 05:52:23;;;;;;;26.30;20.00;;;6.80;99.90;;;;;;5031146;28;20303;-48
2020/12/06 05:54:49;;;;;;;27.87;20.77;;;7.00;99.90;;;;;;5031714;28;20441;-48
2020/12/06 05:57:16;;;;;;;32.28;21.83;;;7.00;99.90;;;;;;5031537;28;20431;-47
2020/12/06 05:59:44;;;;;;;30.70;21.60;;;6.70;99.90;;;;;;5031483;28;20658;-48
2020/12/06 06:02:11;;;;;;;30.73;22.20;;;6.70;99.90;;;;;;5031085;28;20572;-49
2020/12/06 06:04:40;;;;;;;32.37;22.50;;;6.70;99.90;;;;;;5031015;28;20996;-48
2020/12/06 06:07:13;;;;;;;30.83;22.02;;;6.90;99.90;;;;;;5031349;28;20492;-49
2020/12/06 06:09:42;;;;;;;30.65;22.23;;;6.90;99.90;;;;;;5031770;28;20288;-48
2020/12/06 06:12:30;;;;;;;27.38;20.48;;;6.80;99.90;;;;;;5031189;28;20579;-49
2020/12/06 06:15:00;;;;;;;25.08;19.63;;;6.90;99.90;;;;;;5031342;28;20207;-50
2020/12/06 06:17:28;;;;;;;30.30;22.98;;;6.90;99.90;;;;;;5031359;28;20235;-49
2020/12/06 06:19:55;;;;;;;25.25;20.20;;;6.90;99.90;;;;;;5031408;28;20201;-49
2020/12/06 06:22:28;;;;;;;30.65;21.25;;;6.80;99.90;;;;;;5031023;28;20228;-49
2020/12/06 06:24:57;;;;;;;27.35;20.70;;;7.00;99.90;;;;;;5031775;28;20603;-48
2020/12/06 06:27:23;;;;;;;27.90;21.30;;;7.00;99.90;;;;;;5031596;28;20740;-48
2020/12/06 06:29:51;;;;;;;33.22;21.42;;;6.90;99.90;;;;;;5031637;28;20247;-48
2020/12/06 06:32:20;;;;;;;28.48;20.50;;;6.80;99.90;;;;;;5031270;28;20204;-50
2020/12/06 06:34:47;;;;;;;30.23;19.92;;;6.90;99.90;;;;;;5031584;28;20661;-47
2020/12/06 06:37:17;;;;;;;30.30;22.65;;;6.80;99.90;;;;;;5031520;28;20300;-48
2020/12/06 06:39:44;;;;;;;32.75;20.70;;;6.90;99.90;;;;;;5032337;28;20267;-48
2020/12/06 06:42:13;;;;;;;29.67;22.17;;;6.90;99.90;;;;;;5032011;28;20239;-48
2020/12/06 06:44:42;;;;;;;26.65;19.77;;;6.90;99.90;;;;;;5016475;28;20700;-48
2020/12/06 06:47:10;;;;;;;31.20;20.88;;;6.80;99.90;;;;;;5034935;28;20255;-47
2020/12/06 06:49:54;;;;;;;26.10;20.45;;;7.00;99.90;;;;;;5034702;28;20217;-48
2020/12/06 06:52:22;;;;;;;27.52;18.42;;;7.10;99.90;;;;;;5034202;28;20212;-49
2020/12/06 06:54:50;;;;;;;28.25;19.83;;;7.00;99.90;;;;;;5034582;28;20228;-48
2020/12/06 06:57:20;;;;;;;29.20;21.00;;;6.80;99.90;;;;;;5034695;28;20262;-48
2020/12/06 06:59:47;;;;;;;28.45;20.30;;;7.10;99.90;;;;;;5034680;28;20414;-49
2020/12/06 07:02:24;;;;;;;27.20;19.23;;;7.10;99.90;;;;;;5034122;28;20220;-47
2020/12/06 07:04:51;;;;;;;29.33;18.80;;;6.80;99.90;;;;;;5034385;28;20735;-48
2020/12/06 07:07:36;;;;;;;26.25;20.25;;;7.00;99.90;;;;;;5016593;28;20200;-48
2020/12/06 07:10:03;;;;;;;24.58;18.63;;;7.20;99.90;;;;;;5034487;28;20227;-49
2020/12/06 07:12:36;;;;;;;30.17;19.35;;;7.00;99.90;;;;;;5033715;28;20221;-49
2020/12/06 07:15:07;;;;;;;24.63;18.52;;;7.10;99.90;;;;;;5034268;28;20661;-48
2020/12/06 07:17:33;;;;;;;23.63;18.05;;;7.10;99.90;;;;;;5034147;28;20666;-49
2020/12/06 07:20:00;;;;;;;25.20;18.65;;;7.00;99.90;;;;;;5034197;28;20188;-49
2020/12/06 07:22:27;;;;;;;25.40;19.98;;;7.20;99.90;;;;;;5033587;28;20213;-49
2020/12/06 07:24:54;;;;;;;24.73;18.90;;;7.20;99.90;;;;;;5034048;28;20279;-48
2020/12/06 07:27:21;;;;;;;26.38;18.52;;;6.70;99.90;;;;;;5033990;28;20598;-48
2020/12/06 07:29:47;;;;;;;27.03;18.93;;;7.40;99.90;;;;;;5016132;28;20212;-48
2020/12/06 07:32:14;;;;;;;25.20;17.87;;;7.30;99.90;;;;;;5033891;28;20506;-49
2020/12/06 07:34:41;;;;;;;25.10;18.90;;;7.30;99.90;;;;;;5033826;28;20907;-48
2020/12/06 07:37:08;;;;;;;27.93;18.83;;;7.20;99.90;;;;;;5033772;28;20450;-48
2020/12/06 07:39:42;;;;;;;26.70;17.43;;;7.30;99.90;;;;;;5033862;28;20977;-48
2020/12/06 07:42:09;;;;;;;24.40;17.80;;;7.20;99.90;;;;;;5033599;28;20485;-48
2020/12/06 07:44:46;;;;;;;24.80;17.27;;;7.30;99.90;;;;;;5033232;28;20437;-48
2020/12/06 07:47:13;;;;;;;26.40;17.17;;;7.30;99.90;;;;;;5015840;28;20440;-48
2020/12/06 07:49:47;;;;;;;24.70;15.50;;;7.90;99.90;;;;;;5033539;28;20459;-48
2020/12/06 07:52:15;;;;;;;25.23;17.93;;;7.40;99.90;;;;;;5015559;28;20880;-48
2020/12/06 07:54:51;;;;;;;23.27;17.47;;;7.50;99.90;;;;;;5032873;28;20798;-48
2020/12/06 07:57:21;;;;;;;25.53;17.13;;;7.60;99.90;;;;;;5034625;28;20432;-48
2020/12/06 07:59:48;;;;;;;25.87;18.00;;;7.40;99.90;;;;;;5033500;28;20479;-49
2020/12/06 08:02:16;;;;;;;20.37;15.80;;;7.70;99.90;;;;;;5032689;28;20534;-48
2020/12/06 08:04:43;;;;;;;24.63;15.80;;;7.40;99.90;;;;;;5033178;28;20423;-48
2020/12/06 08:07:14;;;;;;;25.30;16.50;;;7.70;99.90;;;;;;5033157;28;20772;-48
2020/12/06 08:09:44;;;;;;;20.67;15.47;;;7.50;99.90;;;;;;5015459;28;20449;-48
2020/12/06 08:12:12;;;;;;;21.97;15.33;;;7.70;99.90;;;;;;5033464;28;20432;-49
2020/12/06 08:14:39;;;;;;;24.17;17.43;;;7.90;99.90;;;;;;5032742;28;20439;-49
2020/12/06 08:17:06;;;;;;;23.17;16.10;;;7.70;99.90;;;;;;5015111;28;20514;-50
2020/12/06 08:19:32;;;;;;;25.67;16.63;;;7.70;99.90;;;;;;5032944;28;20867;-48
2020/12/06 08:22:03;;;;;;;23.37;16.50;;;7.70;99.90;;;;;;5032775;28;20452;-49
2020/12/06 08:24:31;;;;;;;19.63;15.73;;;7.90;99.90;;;;;;5032504;28;20433;-49
2020/12/06 08:27:00;;;;;;;18.77;15.00;;;7.70;99.90;;;;;;5032608;28;20432;-49
2020/12/06 08:29:40;;;;;;;18.20;14.47;;;7.90;99.90;;;;;;5032420;28;20494;-49
2020/12/06 08:32:07;;;;;;;20.67;15.47;;;8.10;99.90;;;;;;5032361;28;20956;-49
2020/12/06 08:34:34;;;;;;;20.00;15.27;;;8.00;99.90;;;;;;5032208;28;20925;-49
2020/12/06 08:37:17;;;;;;;19.63;15.63;;;7.90;99.90;;;;;;5014537;28;20456;-48
2020/12/06 08:39:44;;;;;;;18.90;14.70;;;8.20;99.90;;;;;;5032682;28;20860;-50
2020/12/06 08:42:19;;;;;;;20.97;14.93;;;8.00;99.90;;;;;;5032421;28;20510;-49
2020/12/06 08:44:57;;;;;;;19.53;14.57;;;8.30;99.90;;;;;;5032447;28;20437;-48
2020/12/06 08:47:25;;;;;;;22.00;16.10;;;8.10;99.90;;;;;;5031842;28;20428;-49
2020/12/06 08:50:06;;;;;;;18.40;14.93;;;8.20;99.90;;;;;;5032296;28;20519;-50
2020/12/06 08:52:33;;;;;;;21.00;15.43;;;8.30;99.90;;;;;;5031698;28;20446;-49
2020/12/06 08:55:00;;;;;;;20.53;16.20;;;8.30;99.90;;;;;;5032204;28;20505;-51
2020/12/06 08:57:27;;;;;;;19.50;15.20;;;8.30;99.90;;;;;;5032012;28;20535;-49
2020/12/06 08:59:54;;;;;;;23.57;15.00;;;8.20;99.90;;;;;;5014483;28;20458;-50
2020/12/06 09:02:23;;;;;;;18.67;14.27;;;8.30;99.90;;;;;;5037282;23;20473;-45
2020/12/06 09:04:50;;;;;;;22.90;16.60;;;8.30;99.90;;;;;;5031634;28;20919;-45
2020/12/06 09:07:17;;;;;;;22.30;13.60;;;8.20;99.90;;;;;;5032231;28;20465;-45
2020/12/06 09:09:44;;;;;;;22.93;17.13;;;8.60;99.90;;;;;;5032461;28;20525;-46
2020/12/06 09:12:10;;;;;;;20.40;14.33;;;8.30;99.90;;;;;;5030272;28;21015;-46
2020/12/06 09:14:38;;;;;;;21.03;14.60;;;8.40;99.90;;;;;;5031530;28;20510;-46
2020/12/06 09:17:05;;;;;;;19.77;15.80;;;8.30;99.90;;;;;;5030536;28;20594;-46
2020/12/06 09:19:31;;;;;;;20.67;15.90;;;8.60;99.90;;;;;;5030796;28;20865;-46
2020/12/06 09:21:58;;;;;;;19.13;15.17;;;8.80;99.90;;;;;;5030548;28;20464;-46
2020/12/06 09:24:24;;;;;;;19.50;13.77;;;8.70;99.90;;;;;;5031858;28;20538;-46
2020/12/06 09:26:51;;;;;;;19.53;14.20;;;8.70;99.90;;;;;;5031402;28;20434;-45
2020/12/06 09:29:17;;;;;;;19.90;15.00;;;8.90;99.90;;;;;;5031884;28;20507;-46
2020/12/06 09:31:44;;;;;;;19.37;15.60;;;8.90;99.90;;;;;;5031380;28;20960;-46
2020/12/06 09:34:11;;;;;;;18.13;14.10;;;8.80;99.90;;;;;;5030981;28;20476;-46
2020/12/06 09:36:44;;;;;;;18.80;14.57;;;8.70;99.90;;;;;;5031834;28;20440;-45
2020/12/06 09:39:10;;;;;;;17.43;14.90;;;8.70;99.90;;;;;;5031563;28;20505;-46
2020/12/06 09:41:38;;;;;;;16.70;13.57;;;8.70;99.90;;;;;;5031582;28;20437;-46
2020/12/06 09:44:07;;;;;;;21.33;15.93;;;8.60;99.90;;;;;;5030825;28;20835;-46
2020/12/06 09:46:33;;;;;;;18.77;14.67;;;8.70;99.90;;;;;;5029894;28;20437;-46
2020/12/06 09:49:01;;;;;;;18.70;15.07;;;8.80;99.90;;;;;;5031181;28;20438;-46
2020/12/06 09:51:27;;;;;;;19.57;15.10;;;8.60;99.90;;;;;;5031384;28;20430;-46
2020/12/06 09:53:54;;;;;;;20.13;14.03;;;8.80;99.90;;;;;;5029963;28;20575;-46
2020/12/06 09:56:26;;;;;;;19.07;14.40;;;8.90;99.90;;;;;;5031121;28;20484;-45
2020/12/06 09:58:53;;;;;;;18.27;13.00;;;9.20;99.90;;;;;;5031480;28;20465;-46
2020/12/06 10:01:19;;;;;;;19.90;15.17;;;8.90;99.90;;;;;;5031341;28;20443;-47
2020/12/06 10:03:46;;;;;;;20.87;15.33;;;9.10;99.90;;;;;;5031016;28;20497;-47
2020/12/06 10:06:13;;;;;;;18.63;14.30;;;9.10;99.90;;;;;;5031756;28;20422;-47
2020/12/06 10:08:40;;;;;;;18.30;13.33;;;9.00;99.90;;;;;;5031793;28;20475;-47
2020/12/06 10:11:06;;;;;;;20.30;14.37;;;9.00;99.90;;;;;;5031284;28;20442;-47
2020/12/06 10:13:33;;;;;;;18.23;14.00;;;9.10;99.90;;;;;;5030720;28;20453;-45
2020/12/06 10:15:59;;;;;;;21.90;14.37;;;9.30;99.90;;;;;;5031483;28;20430;-46
2020/12/06 10:18:26;;;;;;;21.70;12.97;;;9.20;99.90;;;;;;5034248;28;20802;-46
2020/12/06 10:20:52;;;;;;;18.07;13.03;;;9.20;99.90;;;;;;5035068;28;20431;-46
2020/12/06 10:23:20;;;;;;;17.87;13.80;;;9.40;99.90;;;;;;5034121;28;20545;-45
2020/12/06 10:25:46;;;;;;;18.43;13.93;;;9.20;99.90;;;;;;5034630;28;20437;-46
2020/12/06 10:28:13;;;;;;;18.80;14.27;;;9.30;99.90;;;;;;5035112;28;20457;-46
2020/12/06 10:30:39;;;;;;;16.53;14.27;;;9.50;99.90;;;;;;5034950;28;20530;-46
2020/12/06 10:33:06;;;;;;;17.37;14.27;;;9.60;99.90;;;;;;5034476;28;20850;-46
2020/12/06 10:35:32;;;;;;;17.70;12.97;;;9.60;99.90;;;;;;5034674;28;20874;-46
2020/12/06 10:37:59;;;;;;;17.20;13.23;;;9.50;99.90;;;;;;5035153;28;20840;-46
2020/12/06 10:40:26;;;;;;;16.47;12.90;;;9.50;99.90;;;;;;5034642;28;20625;-46
2020/12/06 10:42:53;;;;;;;16.50;12.90;;;9.70;99.90;;;;;;5034102;28;20482;-46
2020/12/06 10:45:19;;;;;;;14.93;11.97;;;9.60;99.90;;;;;;5034516;28;20430;-46
2020/12/06 10:47:46;;;;;;;17.57;13.80;;;9.60;99.90;;;;;;5034546;28;20463;-46
2020/12/06 10:50:12;;;;;;;14.60;12.67;;;9.80;99.90;;;;;;5034558;28;20466;-46
2020/12/06 10:52:39;;;;;;;16.17;14.47;;;9.90;99.90;;;;;;5034236;28;20475;-45
2020/12/06 10:55:05;;;;;;;15.47;12.53;;;9.60;99.90;;;;;;5034459;28;20984;-46
2020/12/06 10:57:32;;;;;;;16.03;12.90;;;10.10;99.90;;;;;;5034442;28;20427;-46
2020/12/06 10:59:59;;;;;;;16.50;13.03;;;9.90;99.90;;;;;;5034340;28;20513;-46
2020/12/06 11:02:26;;;;;;;16.60;12.87;;;9.80;99.90;;;;;;5033495;28;20471;-46
2020/12/06 11:04:52;;;;;;;15.97;13.00;;;9.80;99.90;;;;;;5034157;28;20974;-46
2020/12/06 11:07:19;;;;;;;17.80;13.90;;;10.20;99.90;;;;;;5033921;28;20444;-46
2020/12/06 11:09:45;;;;;;;17.53;13.87;;;10.20;99.90;;;;;;5033815;28;20435;-46
2020/12/06 11:12:12;;;;;;;17.97;12.67;;;9.90;99.90;;;;;;5033887;28;20455;-46
2020/12/06 11:14:39;;;;;;;17.87;13.17;;;10.10;99.90;;;;;;5033399;28;20459;-47
2020/12/06 11:17:05;;;;;;;13.83;11.63;;;10.00;99.90;;;;;;5034147;28;20467;-47
2020/12/06 11:19:32;;;;;;;16.13;12.40;;;10.30;99.90;;;;;;5034009;28;20504;-46
2020/12/06 11:21:58;;;;;;;15.80;12.80;;;10.20;99.90;;;;;;5033658;28;20965;-47
2020/12/06 11:24:25;;;;;;;18.93;14.50;;;10.20;99.90;;;;;;5033384;28;20479;-46
2020/12/06 11:26:52;;;;;;;16.20;13.63;;;10.20;99.90;;;;;;5033828;28;20450;-46
2020/12/06 11:29:18;;;;;;;16.33;12.93;;;10.20;99.90;;;;;;5034150;28;20462;-46
2020/12/06 11:31:47;;;;;;;16.33;12.63;;;10.20;99.90;;;;;;5033620;28;20916;-46
2020/12/06 11:34:14;;;;;;;15.70;12.17;;;10.50;99.90;;;;;;5033095;28;20487;-46
2020/12/06 11:36:40;;;;;;;15.30;12.57;;;10.50;99.90;;;;;;5033162;28;20427;-47
2020/12/06 11:39:07;;;;;;;14.63;12.60;;;10.40;99.90;;;;;;5033080;28;20427;-46
2020/12/06 11:41:33;;;;;;;18.17;12.87;;;10.40;99.90;;;;;;5033181;28;20455;-46
2020/12/06 11:44:00;;;;;;;16.67;13.10;;;10.60;99.90;;;;;;5032685;28;20524;-46
2020/12/06 11:46:26;;;;;;;14.20;12.30;;;10.60;99.90;;;;;;5032584;28;20431;-45
2020/12/06 11:48:54;;;;;;;13.93;12.30;;;10.20;99.90;;;;;;5033293;28;20415;-47
2020/12/06 11:51:20;;;;;;;16.43;13.23;;;10.40;99.90;;;;;;5033505;28;20432;-47
2020/12/06 11:53:47;;;;;;;15.63;11.83;;;10.50;99.90;;;;;;5032992;28;20455;-47
2020/12/06 11:56:14;;;;;;;18.63;12.00;;;10.50;99.90;;;;;;5032973;28;20518;-47
2020/12/06 11:58:41;;;;;;;13.40;11.97;;;10.60;99.90;;;;;;5033173;28;20924;-47
2020/12/06 12:01:07;;;;;;;14.63;12.30;;;10.60;99.90;;;;;;5033164;28;20481;-47
2020/12/06 12:03:34;;;;;;;15.93;12.90;;;10.70;99.90;;;;;;5032660;28;21073;-47
2020/12/06 12:06:01;;;;;;;14.90;12.60;;;10.60;99.90;;;;;;5032937;28;20484;-47
2020/12/06 12:08:27;;;;;;;13.57;12.07;;;10.60;99.90;;;;;;5032900;28;20403;-47
2020/12/06 12:10:54;;;;;;;15.13;13.00;;;10.60;99.90;;;;;;5033347;28;20963;-47
2020/12/06 12:13:20;;;;;;;18.40;12.40;;;10.90;99.90;;;;;;5032598;28;20484;-47
2020/12/06 12:15:47;;;;;;;15.57;13.13;;;11.00;99.90;;;;;;5032693;28;20462;-47
2020/12/06 12:18:13;;;;;;;14.77;12.80;;;10.80;99.90;;;;;;5032389;28;20473;-48
2020/12/06 12:20:40;;;;;;;17.47;12.73;;;10.90;99.90;;;;;;5031555;28;20519;-48
2020/12/06 12:23:07;;;;;;;17.70;13.93;;;10.90;99.90;;;;;;5032641;28;20573;-47
2020/12/06 12:25:34;;;;;;;14.43;12.67;;;11.10;99.90;;;;;;5031610;28;20538;-46
2020/12/06 12:28:01;;;;;;;14.63;12.03;;;10.90;99.90;;;;;;5032797;28;20860;-46
2020/12/06 12:30:27;;;;;;;14.40;12.13;;;11.20;99.90;;;;;;5030995;28;20964;-46
2020/12/06 12:32:54;;;;;;;15.87;12.70;;;11.20;99.90;;;;;;5032191;28;20828;-46
2020/12/06 12:35:21;;;;;;;14.93;12.50;;;11.00;99.90;;;;;;5032471;28;20509;-46
2020/12/06 12:37:48;;;;;;;14.73;13.20;;;11.00;99.90;;;;;;5032932;28;20928;-46